Terminal Aerodrome Forecast
Issued by NWS

Home | Current Version | Previous Version | Text Only | Print | Product List | Glossary On
Versions: 1 2 3 4 5 6 7 8 9 10 11 12 13
684
FTUS45 KABQ 271120
TAFLVS
TAF
KLVS 271120Z 2712/2812 26006KT P6SM FEW060
     FM271600 29015G25KT P6SM FEW050
     FM272000 31015G25KT P6SM VCSH BKN070
     FM280000 31014KT P6SM SCT070=

USA.gov is the U.S. government's official web portal to all federal, state and local government web resources and services.